Fabius, New York
Current Conditions -  °F | °C
As of 5:54 PM on Monday 24 Nov 2014 (Local Time) from KSYR Reporting Station
Few Clouds Few Clouds  
Wind Chill: 67°   Ceiling: Unl
Heat Index: 67°   Visibility: 10mi
Dew Point: 50°   Wind: 15mph
Humidity: 54%   Direction: 180°S
Pressure: 29.4"   Gusts: 24mph
Location:  42.84°N, 75.99°W
Report Text: KSYR 242254Z 18013G21KT 10SM FEW085 19/10 A2940 RMK AO2 SLP953 FEW V SCT T01940100
Loading
Personal Weather Stations






























Interactive Weather Map New forecast layout! Learn more

10-Day Weather Forecast

Advertisements
Track Severe Weather on mobile